Time;durP1;ratioP1;P1;durP2;ratioP2;P2;SDS_P1;SDS_P2;PMS_P1;PMS_P2;Temp;Humidity;BMP_temperature;BMP_pressure;BME280_temperature;BME280_humidity;BME280_pressure;Samples;Min_cycle;Max_cycle;Signal;HPM_P1;HPM_P2
2022/03/08 00:00:00;;;;;;;;;;;22.20;26.30;;;;;;5047502;28;20341;-68
2022/03/08 00:02:27;;;;;;;;;;;22.20;26.30;;;;;;5046249;28;19947;-68
2022/03/08 00:04:55;;;;;;;;;;;22.20;26.30;;;;;;5047856;28;20381;-68
2022/03/08 00:07:22;;;;;;;;;;;22.20;26.30;;;;;;5046139;28;20298;-69
2022/03/08 00:09:49;;;;;;;;;;;22.20;26.30;;;;;;5048213;28;19967;-68
2022/03/08 00:12:16;;;;;;;;;;;22.20;26.30;;;;;;5047967;28;20022;-69
2022/03/08 00:14:42;;;;;;;;;;;22.20;26.30;;;;;;5047493;28;19979;-68
2022/03/08 00:17:13;;;;;;;;;;;22.20;26.30;;;;;;5045095;28;20019;-69
2022/03/08 00:19:40;;;;;;;;;;;22.20;26.30;;;;;;5047764;28;19976;-68
2022/03/08 00:22:07;;;;;;;;;;;22.20;26.30;;;;;;5046243;28;20002;-68
2022/03/08 00:27:42;;;;;;;;;;;22.10;26.20;;;;;;5045907;28;20019;-68
2022/03/08 00:30:09;;;;;;;;;;;22.20;26.30;;;;;;5048098;28;20420;-68
2022/03/08 00:32:37;;;;;;;;;;;22.10;26.20;;;;;;5045829;28;20164;-69
2022/03/08 00:35:05;;;;;;;;;;;22.10;26.20;;;;;;5047477;28;20431;-69
2022/03/08 00:37:32;;;;;;;;;;;22.10;26.30;;;;;;5045717;28;19984;-69
2022/03/08 00:39:59;;;;;;;;;;;22.10;26.30;;;;;;5047742;28;20047;-69
2022/03/08 00:42:26;;;;;;;;;;;22.10;26.30;;;;;;5045749;28;19951;-69
2022/03/08 00:44:53;;;;;;;;;;;22.10;26.30;;;;;;5047856;28;19925;-69
2022/03/08 00:47:20;;;;;;;;;;;22.10;26.30;;;;;;5044030;28;20390;-69
2022/03/08 00:49:47;;;;;;;;;;;22.10;26.30;;;;;;5029753;28;19960;-69
2022/03/08 00:52:14;;;;;;;;;;;22.10;26.30;;;;;;5045731;28;20435;-71
2022/03/08 00:54:41;;;;;;;;;;;22.10;26.30;;;;;;5047281;28;19929;-68
2022/03/08 00:57:08;;;;;;;;;;;22.10;26.30;;;;;;5045984;28;20291;-68
2022/03/08 01:03:20;;;;;;;;;;;22.10;26.30;;;;;;5046214;28;19986;-68
2022/03/08 01:05:48;;;;;;;;;;;22.10;26.30;;;;;;5047708;28;19925;-68
2022/03/08 01:08:15;;;;;;;;;;;22.10;26.40;;;;;;5046247;28;20346;-68
2022/03/08 01:10:42;;;;;;;;;;;22.10;26.40;;;;;;5046978;28;20384;-68
2022/03/08 01:13:09;;;;;;;;;;;22.00;26.30;;;;;;5044488;28;19925;-69
2022/03/08 01:15:36;;;;;;;;;;;22.10;26.40;;;;;;5047480;28;20452;-69
2022/03/08 01:18:03;;;;;;;;;;;22.00;26.40;;;;;;5045714;28;19976;-68
2022/03/08 01:20:30;;;;;;;;;;;22.10;26.40;;;;;;5047130;28;20333;-69
2022/03/08 01:22:57;;;;;;;;;;;22.00;26.40;;;;;;5045223;28;19924;-68
2022/03/08 01:25:24;;;;;;;;;;;22.00;26.40;;;;;;5047248;28;19967;-69
2022/03/08 01:27:51;;;;;;;;;;;22.00;26.40;;;;;;5045370;28;19928;-68
2022/03/08 01:30:20;;;;;;;;;;;22.10;26.40;;;;;;5047244;28;19975;-68
2022/03/08 01:32:47;;;;;;;;;;;22.00;26.40;;;;;;5045497;28;19924;-68
2022/03/08 01:35:14;;;;;;;;;;;22.00;26.40;;;;;;5046899;28;20452;-69
2022/03/08 01:37:41;;;;;;;;;;;22.00;26.40;;;;;;5047337;28;19935;-69
2022/03/08 01:40:09;;;;;;;;;;;22.00;26.40;;;;;;5049752;28;20255;-69
2022/03/08 01:42:36;;;;;;;;;;;22.00;26.40;;;;;;5048929;28;19947;-69
2022/03/08 01:45:04;;;;;;;;;;;22.00;26.40;;;;;;5050604;28;19924;-68
2022/03/08 01:47:31;;;;;;;;;;;22.00;26.40;;;;;;5048533;28;19925;-68
2022/03/08 01:50:00;;;;;;;;;;;22.00;26.40;;;;;;5050655;28;19932;-68
2022/03/08 01:52:27;;;;;;;;;;;22.00;26.40;;;;;;5048421;28;20353;-69
2022/03/08 01:54:54;;;;;;;;;;;22.00;26.40;;;;;;5050425;28;19924;-68
2022/03/08 01:57:23;;;;;;;;;;;22.00;26.40;;;;;;5048907;28;19982;-68
2022/03/08 01:59:51;;;;;;;;;;;22.00;26.40;;;;;;5050248;28;19935;-68
2022/03/08 02:02:19;;;;;;;;;;;22.00;26.40;;;;;;5048426;28;20574;-68
2022/03/08 02:04:46;;;;;;;;;;;22.00;26.40;;;;;;5049868;28;19924;-68
2022/03/08 02:07:13;;;;;;;;;;;22.00;26.40;;;;;;5048035;28;20402;-68
2022/03/08 02:09:40;;;;;;;;;;;22.00;26.40;;;;;;5049725;28;19990;-68
2022/03/08 02:12:08;;;;;;;;;;;22.00;26.40;;;;;;5048795;28;20194;-68
2022/03/08 02:14:35;;;;;;;;;;;22.00;26.40;;;;;;5049586;28;19932;-68
2022/03/08 02:17:02;;;;;;;;;;;22.00;26.40;;;;;;5048751;28;19929;-68
2022/03/08 02:19:29;;;;;;;;;;;22.00;26.50;;;;;;5049853;28;19983;-68
2022/03/08 02:21:56;;;;;;;;;;;22.00;26.50;;;;;;5049289;28;20126;-68
2022/03/08 02:27:27;;;;;;;;;;;22.00;26.50;;;;;;5047646;28;19932;-68
2022/03/08 02:29:54;;;;;;;;;;;22.00;26.50;;;;;;5050050;28;19970;-68
2022/03/08 02:32:23;;;;;;;;;;;21.90;26.50;;;;;;5046890;28;19929;-68
2022/03/08 02:34:50;;;;;;;;;;;21.90;26.50;;;;;;5049428;28;19936;-68
2022/03/08 02:37:17;;;;;;;;;;;22.00;26.50;;;;;;5048472;28;19929;-68
2022/03/08 02:39:44;;;;;;;;;;;21.90;26.50;;;;;;5049603;28;20352;-68
2022/03/08 02:42:11;;;;;;;;;;;21.90;26.50;;;;;;5048347;28;19964;-68
2022/03/08 02:44:38;;;;;;;;;;;21.90;26.50;;;;;;5049244;28;20043;-68
2022/03/08 02:47:05;;;;;;;;;;;21.90;26.50;;;;;;5047826;28;19925;-68
2022/03/08 02:52:38;;;;;;;;;;;21.90;26.50;;;;;;5047177;28;19929;-68
2022/03/08 02:55:06;;;;;;;;;;;21.90;26.50;;;;;;5049618;28;19924;-68
2022/03/08 02:57:33;;;;;;;;;;;21.90;26.50;;;;;;5047287;28;20392;-69
2022/03/08 03:00:00;;;;;;;;;;;21.90;26.50;;;;;;5049166;28;19925;-69
2022/03/08 03:02:27;;;;;;;;;;;21.90;26.50;;;;;;5047226;28;19925;-69
2022/03/08 03:04:55;;;;;;;;;;;21.90;26.50;;;;;;5049346;28;20002;-68
2022/03/08 03:07:22;;;;;;;;;;;21.90;26.50;;;;;;5046560;28;19971;-68
2022/03/08 03:09:50;;;;;;;;;;;21.90;26.50;;;;;;5049220;28;19925;-68
2022/03/08 03:12:17;;;;;;;;;;;21.90;26.50;;;;;;5047241;28;19979;-69
2022/03/08 03:14:44;;;;;;;;;;;21.80;26.50;;;;;;5048868;28;19983;-68
2022/03/08 03:17:11;;;;;;;;;;;21.90;26.60;;;;;;5047313;28;20443;-68
2022/03/08 03:19:38;;;;;;;;;;;21.90;26.60;;;;;;5048840;28;19994;-68
2022/03/08 03:22:05;;;;;;;;;;;21.90;26.60;;;;;;5047776;28;19986;-69
2022/03/08 03:27:36;;;;;;;;;;;21.90;26.60;;;;;;5046682;28;20389;-68
2022/03/08 03:30:05;;;;;;;;;;;21.90;26.60;;;;;;5048750;28;19925;-69
2022/03/08 03:32:32;;;;;;;;;;;21.90;26.60;;;;;;5046866;28;19925;-68
2022/03/08 03:35:00;;;;;;;;;;;21.90;26.60;;;;;;5048838;28;19995;-69
2022/03/08 03:37:27;;;;;;;;;;;21.90;26.60;;;;;;5045590;28;20325;-69
2022/03/08 03:39:54;;;;;;;;;;;21.90;26.60;;;;;;5048697;28;20328;-68
2022/03/08 03:42:21;;;;;;;;;;;21.90;26.60;;;;;;5046661;28;19986;-69
2022/03/08 03:44:48;;;;;;;;;;;21.90;26.60;;;;;;5048756;28;20153;-68
2022/03/08 03:47:16;;;;;;;;;;;21.90;26.60;;;;;;5046381;28;20423;-68
2022/03/08 03:50:01;;;;;;;;;;;21.90;26.60;;;;;;5047041;28;20213;-69
2022/03/08 03:52:29;;;;;;;;;;;21.90;26.60;;;;;;5046538;28;19925;-69
2022/03/08 03:54:56;;;;;;;;;;;21.90;26.70;;;;;;5048320;28;19952;-68
2022/03/08 03:57:23;;;;;;;;;;;21.80;26.60;;;;;;5046587;28;19994;-70
2022/03/08 03:59:50;;;;;;;;;;;21.80;26.60;;;;;;5047872;28;20294;-69
2022/03/08 04:02:17;;;;;;;;;;;21.80;26.70;;;;;;5046055;28;19925;-69
2022/03/08 04:04:44;;;;;;;;;;;21.80;26.70;;;;;;5047593;28;19951;-69
2022/03/08 04:07:11;;;;;;;;;;;21.80;26.70;;;;;;5046723;28;19990;-68
2022/03/08 04:09:38;;;;;;;;;;;21.80;27.20;;;;;;5046293;28;20343;-68
2022/03/08 04:12:05;;;;;;;;;;;21.80;26.70;;;;;;5046869;28;19925;-68
2022/03/08 04:14:32;;;;;;;;;;;21.80;26.70;;;;;;5047566;28;19975;-68
2022/03/08 04:17:02;;;;;;;;;;;21.80;26.80;;;;;;5046916;28;19925;-68
2022/03/08 04:19:29;;;;;;;;;;;21.80;26.80;;;;;;5046856;28;20263;-68
2022/03/08 04:21:56;;;;;;;;;;;21.80;26.80;;;;;;5047256;28;20360;-69
2022/03/08 04:27:28;;;;;;;;;;;21.80;26.80;;;;;;5045557;28;19986;-69
2022/03/08 04:29:55;;;;;;;;;;;21.70;26.80;;;;;;5047607;28;19929;-69
2022/03/08 04:32:22;;;;;;;;;;;21.80;26.90;;;;;;5045426;28;19972;-69
2022/03/08 04:34:49;;;;;;;;;;;21.70;26.90;;;;;;5038654;28;19928;-68
2022/03/08 04:37:17;;;;;;;;;;;21.70;26.90;;;;;;5049467;28;19924;-68
2022/03/08 04:39:44;;;;;;;;;;;21.70;26.90;;;;;;5028449;28;19937;-68
2022/03/08 04:42:11;;;;;;;;;;;21.70;26.90;;;;;;5037025;28;19925;-69
2022/03/08 04:44:38;;;;;;;;;;;21.70;26.90;;;;;;5041830;28;20436;-68
2022/03/08 04:47:05;;;;;;;;;;;21.70;27.00;;;;;;5040308;28;19979;-69
2022/03/08 04:52:37;;;;;;;;;;;21.70;27.00;;;;;;5031156;28;19964;-69
2022/03/08 04:55:04;;;;;;;;;;;21.70;27.00;;;;;;5027732;28;19983;-69
2022/03/08 04:57:31;;;;;;;;;;;21.70;27.00;;;;;;5025786;28;19995;-69
2022/03/08 04:59:58;;;;;;;;;;;21.70;27.10;;;;;;5027521;28;19994;-69
2022/03/08 05:02:25;;;;;;;;;;;21.70;27.10;;;;;;5025580;28;20302;-69
2022/03/08 05:04:52;;;;;;;;;;;21.70;27.10;;;;;;5027369;28;20019;-69
2022/03/08 05:07:19;;;;;;;;;;;21.70;27.10;;;;;;5025454;28;20378;-69
2022/03/08 05:09:46;;;;;;;;;;;21.70;27.10;;;;;;5027141;28;19929;-68
2022/03/08 05:12:13;;;;;;;;;;;21.70;27.10;;;;;;5027079;28;19929;-68
2022/03/08 05:14:40;;;;;;;;;;;21.70;27.10;;;;;;5031070;28;19933;-68
2022/03/08 05:17:07;;;;;;;;;;;21.70;27.10;;;;;;5029865;28;20196;-68
2022/03/08 05:19:34;;;;;;;;;;;21.70;27.10;;;;;;5030853;28;19929;-69
2022/03/08 05:22:01;;;;;;;;;;;21.70;27.10;;;;;;5029721;28;19925;-69
2022/03/08 05:27:34;;;;;;;;;;;21.70;27.10;;;;;;5029236;28;19925;-69
2022/03/08 05:30:01;;;;;;;;;;;21.70;27.20;;;;;;5031350;28;20374;-69
2022/03/08 05:32:28;;;;;;;;;;;21.70;27.10;;;;;;5038544;28;19924;-70
2022/03/08 05:34:55;;;;;;;;;;;21.70;27.10;;;;;;5046350;28;20006;-68
2022/03/08 05:37:22;;;;;;;;;;;21.70;27.20;;;;;;5048911;28;19978;-69
2022/03/08 05:39:49;;;;;;;;;;;21.70;27.20;;;;;;5050865;28;19995;-69
2022/03/08 05:42:16;;;;;;;;;;;21.70;27.20;;;;;;5049441;28;19925;-68
2022/03/08 05:44:43;;;;;;;;;;;21.70;27.20;;;;;;5050065;28;19978;-68
2022/03/08 05:47:10;;;;;;;;;;;21.70;27.10;;;;;;5038991;28;19925;-68
2022/03/08 05:52:29;;;;;;;;;;;21.70;27.10;;;;;;5058735;28;19967;-69
2022/03/08 05:54:56;;;;;;;;;;;21.70;27.20;;;;;;5050688;28;19971;-68
2022/03/08 05:57:23;;;;;;;;;;;21.70;27.10;;;;;;5051794;28;19925;-67
2022/03/08 05:59:50;;;;;;;;;;;21.70;27.10;;;;;;5066691;28;19925;-69
2022/03/08 06:02:18;;;;;;;;;;;21.70;27.10;;;;;;5069817;28;20712;-66
2022/03/08 06:04:45;;;;;;;;;;;21.70;27.10;;;;;;5069974;28;19947;-67
2022/03/08 06:07:12;;;;;;;;;;;21.70;27.10;;;;;;5049152;28;19925;-67
2022/03/08 06:09:39;;;;;;;;;;;21.70;27.00;;;;;;5048070;28;19970;-66
2022/03/08 06:12:07;;;;;;;;;;;21.70;26.90;;;;;;5048868;28;19933;-69
2022/03/08 06:14:34;;;;;;;;;;;21.70;26.80;;;;;;5039729;28;19960;-66
2022/03/08 06:17:01;;;;;;;;;;;21.70;26.80;;;;;;5047319;28;20320;-66
2022/03/08 06:19:28;;;;;;;;;;;21.70;26.80;;;;;;5058811;28;19925;-67
2022/03/08 06:21:55;;;;;;;;;;;21.70;26.80;;;;;;5071700;28;19954;-71
2022/03/08 06:27:37;;;;;;;;;;;21.70;26.80;;;;;;5043527;28;19929;-69
2022/03/08 06:30:05;;;;;;;;;;;21.70;26.80;;;;;;5044299;28;19932;-66
2022/03/08 06:32:32;;;;;;;;;;;21.80;26.80;;;;;;5047182;28;21766;-67
2022/03/08 06:34:59;;;;;;;;;;;21.80;27.20;;;;;;5048365;28;19925;-70
2022/03/08 06:37:58;;;;;;;;;;;21.90;27.50;;;;;;5050116;28;19933;-72
2022/03/08 06:40:26;;;;;;;;;;;21.90;27.60;;;;;;5038307;28;20357;-67
2022/03/08 06:42:53;;;;;;;;;;;22.00;27.60;;;;;;5049501;28;19971;-69
2022/03/08 06:45:20;;;;;;;;;;;22.10;27.70;;;;;;5052737;28;19929;-66
2022/03/08 06:47:47;;;;;;;;;;;22.20;27.70;;;;;;5050154;28;20354;-67
2022/03/08 06:50:14;;;;;;;;;;;22.20;27.70;;;;;;5060091;28;19928;-65
2022/03/08 06:52:41;;;;;;;;;;;22.30;27.60;;;;;;5069854;28;19931;-64
2022/03/08 06:55:10;;;;;;;;;;;22.40;27.70;;;;;;5068742;28;19924;-67
2022/03/08 06:57:37;;;;;;;;;;;22.50;27.70;;;;;;5070041;28;19931;-68
2022/03/08 07:00:05;;;;;;;;;;;22.50;27.50;;;;;;5068081;28;20313;-65
2022/03/08 07:02:32;;;;;;;;;;;22.70;27.40;;;;;;5070424;28;20103;-66
2022/03/08 07:04:59;;;;;;;;;;;22.70;27.50;;;;;;5070703;28;19930;-66
2022/03/08 07:07:26;;;;;;;;;;;22.80;27.60;;;;;;5070928;28;19928;-69
2022/03/08 07:09:53;;;;;;;;;;;22.90;27.70;;;;;;5067081;28;19928;-69
2022/03/08 07:12:20;;;;;;;;;;;22.90;27.70;;;;;;5070726;28;19924;-72
2022/03/08 07:14:48;;;;;;;;;;;23.00;27.70;;;;;;5070197;28;19929;-72
2022/03/08 07:17:15;;;;;;;;;;;23.00;27.70;;;;;;5071446;28;19925;-75
2022/03/08 07:19:42;;;;;;;;;;;23.10;27.70;;;;;;5060239;28;19924;-67
2022/03/08 07:22:09;;;;;;;;;;;23.20;27.60;;;;;;5051358;28;19971;-69
2022/03/08 07:24:36;;;;;;;;;;;23.30;27.30;;;;;;5050497;28;19979;-72
2022/03/08 07:27:03;;;;;;;;;;;23.30;27.30;;;;;;5048625;28;19925;-71
2022/03/08 07:29:31;;;;;;;;;;;23.40;27.30;;;;;;5050630;28;19925;-66
2022/03/08 07:31:58;;;;;;;;;;;23.50;27.50;;;;;;5051348;28;19929;-68
2022/03/08 07:34:25;;;;;;;;;;;23.50;27.30;;;;;;5047543;28;20374;-67
2022/03/08 07:36:52;;;;;;;;;;;23.60;27.30;;;;;;5048793;28;19979;-68
2022/03/08 07:39:20;;;;;;;;;;;23.70;27.00;;;;;;5047725;28;20346;-68
2022/03/08 07:41:46;;;;;;;;;;;23.70;26.70;;;;;;5038158;28;19956;-73
2022/03/08 07:44:13;;;;;;;;;;;23.70;26.50;;;;;;5041576;28;19925;-69
2022/03/08 07:46:41;;;;;;;;;;;23.80;26.70;;;;;;5046857;28;20293;-74
2022/03/08 07:49:08;;;;;;;;;;;23.90;27.30;;;;;;5039705;28;19928;-79
2022/03/08 07:51:47;;;;;;;;;;;23.90;26.90;;;;;;5040342;28;19950;-73
2022/03/08 07:54:14;;;;;;;;;;;23.90;27.00;;;;;;5037065;28;19982;-68
2022/03/08 07:56:41;;;;;;;;;;;24.00;26.80;;;;;;5033371;28;19924;-72
2022/03/08 07:59:08;;;;;;;;;;;24.10;26.80;;;;;;5042586;28;19924;-68
2022/03/08 08:01:35;;;;;;;;;;;24.10;26.70;;;;;;5043224;28;20348;-67
2022/03/08 08:04:03;;;;;;;;;;;24.20;26.80;;;;;;5042079;28;19924;-67
2022/03/08 08:06:30;;;;;;;;;;;24.20;26.70;;;;;;5047079;28;20471;-68
2022/03/08 08:12:20;;;;;;;;;;;24.30;26.60;;;;;;5043644;28;19932;-67
2022/03/08 08:14:49;;;;;;;;;;;24.30;26.50;;;;;;5046207;28;20134;-70
2022/03/08 08:17:18;;;;;;;;;;;24.30;26.60;;;;;;5044113;28;20348;-69
2022/03/08 08:19:45;;;;;;;;;;;24.40;26.40;;;;;;5042451;28;20389;-68
2022/03/08 08:22:13;;;;;;;;;;;24.40;26.40;;;;;;5045314;28;19924;-65
2022/03/08 08:24:40;;;;;;;;;;;24.50;26.50;;;;;;5044322;28;19924;-70
2022/03/08 08:27:07;;;;;;;;;;;24.50;26.50;;;;;;5048704;28;20352;-71
2022/03/08 08:29:34;;;;;;;;;;;24.50;26.40;;;;;;5044493;28;19951;-68
2022/03/08 08:32:01;;;;;;;;;;;24.50;26.70;;;;;;5045291;28;19932;-68
2022/03/08 08:37:51;;;;;;;;;;;24.60;26.50;;;;;;5045933;28;19931;-68
2022/03/08 08:40:18;;;;;;;;;;;24.70;26.70;;;;;;5046964;28;19925;-67
2022/03/08 08:42:45;;;;;;;;;;;24.70;26.40;;;;;;5042784;28;19933;-72
2022/03/08 08:45:13;;;;;;;;;;;24.70;26.40;;;;;;5047623;28;19925;-70
2022/03/08 08:47:41;;;;;;;;;;;24.70;26.30;;;;;;5047735;28;19983;-67
2022/03/08 08:53:04;;;;;;;;;;;24.80;26.50;;;;;;5039090;28;19962;-66
2022/03/08 08:55:33;;;;;;;;;;;24.90;26.50;;;;;;5044928;28;19971;-68
2022/03/08 08:58:00;;;;;;;;;;;24.90;26.50;;;;;;5048197;28;20341;-64
2022/03/08 09:00:27;;;;;;;;;;;24.90;26.40;;;;;;5045779;28;19974;-69
2022/03/08 09:02:54;;;;;;;;;;;24.90;26.40;;;;;;5043624;28;19960;-67
2022/03/08 09:05:22;;;;;;;;;;;25.00;26.40;;;;;;5048149;28;20382;-71
2022/03/08 09:07:49;;;;;;;;;;;25.10;26.50;;;;;;5047847;28;19925;-71
2022/03/08 09:10:19;;;;;;;;;;;25.10;26.40;;;;;;5049696;28;19929;-67
2022/03/08 09:12:51;;;;;;;;;;;25.10;26.50;;;;;;5047237;28;19947;-71
2022/03/08 09:15:18;;;;;;;;;;;25.10;26.50;;;;;;5043756;28;19925;-72
2022/03/08 09:17:45;;;;;;;;;;;25.10;26.20;;;;;;5049500;28;19959;-73
2022/03/08 09:20:13;;;;;;;;;;;25.10;26.20;;;;;;5049301;28;19927;-73
2022/03/08 09:22:45;;;;;;;;;;;25.10;26.40;;;;;;5050209;28;19939;-72
2022/03/08 09:25:12;;;;;;;;;;;25.10;26.30;;;;;;5044879;28;19937;-69
2022/03/08 09:27:39;;;;;;;;;;;25.20;26.30;;;;;;5039464;28;19940;-74
2022/03/08 09:30:06;;;;;;;;;;;25.20;26.40;;;;;;5041651;28;19967;-66
2022/03/08 09:32:33;;;;;;;;;;;25.30;26.20;;;;;;5037823;28;19932;-65
2022/03/08 09:35:00;;;;;;;;;;;25.20;26.20;;;;;;5041908;28;20381;-71
2022/03/08 09:37:27;;;;;;;;;;;25.30;26.40;;;;;;5040151;28;19932;-70
2022/03/08 09:39:54;;;;;;;;;;;25.30;26.20;;;;;;5040373;28;19944;-70
2022/03/08 09:42:21;;;;;;;;;;;25.20;25.90;;;;;;5037194;28;20018;-70
2022/03/08 09:44:49;;;;;;;;;;;25.20;25.90;;;;;;5039075;28;19932;-67
2022/03/08 09:47:16;;;;;;;;;;;25.20;26.40;;;;;;5038707;28;19932;-69
2022/03/08 09:49:43;;;;;;;;;;;25.10;25.80;;;;;;5042515;28;19932;-67
2022/03/08 09:52:10;;;;;;;;;;;25.10;25.90;;;;;;5037010;28;20443;-70
2022/03/08 09:55:09;;;;;;;;;;;25.10;25.80;;;;;;5041510;28;20056;-68
2022/03/08 09:57:36;;;;;;;;;;;25.10;25.80;;;;;;5036996;28;19924;-69
2022/03/08 10:00:04;;;;;;;;;;;25.00;25.90;;;;;;5051038;28;20385;-70
2022/03/08 10:02:49;;;;;;;;;;;25.00;26.40;;;;;;5048819;28;19936;-67
2022/03/08 10:05:21;;;;;;;;;;;25.00;26.00;;;;;;5049077;28;19925;-66
2022/03/08 10:08:02;;;;;;;;;;;25.00;26.00;;;;;;5044855;28;19929;-67
2022/03/08 10:10:31;;;;;;;;;;;25.00;26.00;;;;;;5047084;28;20006;-67
2022/03/08 10:13:00;;;;;;;;;;;25.00;25.90;;;;;;5050431;28;19929;-71
2022/03/08 10:15:26;;;;;;;;;;;25.00;25.90;;;;;;5051782;28;19971;-74
2022/03/08 10:17:54;;;;;;;;;;;25.00;25.90;;;;;;5047224;28;19941;-74
2022/03/08 10:20:29;;;;;;;;;;;25.10;26.10;;;;;;5049381;28;20135;-67
2022/03/08 10:22:56;;;;;;;;;;;25.00;26.00;;;;;;5050121;28;19952;-64
2022/03/08 10:25:25;;;;;;;;;;;25.00;26.00;;;;;;5049692;28;19925;-67
2022/03/08 10:28:00;;;;;;;;;;;25.10;26.10;;;;;;5042334;28;20294;-66
2022/03/08 10:30:29;;;;;;;;;;;25.10;26.10;;;;;;5046305;28;19933;-63
2022/03/08 10:33:04;;;;;;;;;;;25.20;25.80;;;;;;5050093;28;20036;-67
2022/03/08 10:35:37;;;;;;;;;;;25.20;25.60;;;;;;5050555;28;20024;-67
2022/03/08 10:38:05;;;;;;;;;;;25.30;25.60;;;;;;5049659;28;20355;-67
2022/03/08 10:40:32;;;;;;;;;;;25.30;25.40;;;;;;5047410;28;20010;-67
2022/03/08 10:43:04;;;;;;;;;;;25.30;25.70;;;;;;5049081;28;19924;-65
2022/03/08 10:45:32;;;;;;;;;;;25.30;25.20;;;;;;5049286;28;19925;-65
2022/03/08 10:47:59;;;;;;;;;;;25.30;25.30;;;;;;5047687;28;20489;-65
2022/03/08 10:50:28;;;;;;;;;;;25.30;25.30;;;;;;5062749;28;19928;-66
2022/03/08 10:52:57;;;;;;;;;;;25.30;25.20;;;;;;5070464;28;20370;-65
2022/03/08 10:55:32;;;;;;;;;;;25.30;25.20;;;;;;5070904;28;19932;-67
2022/03/08 10:58:01;;;;;;;;;;;25.40;25.70;;;;;;5070642;28;19924;-63
2022/03/08 11:00:29;;;;;;;;;;;25.40;25.30;;;;;;5058282;28;19932;-64
2022/03/08 11:02:59;;;;;;;;;;;25.40;24.90;;;;;;5039553;28;20274;-67
2022/03/08 11:05:34;;;;;;;;;;;25.40;25.40;;;;;;5043646;28;19932;-66
2022/03/08 11:08:01;;;;;;;;;;;25.40;25.30;;;;;;5040229;28;19958;-67
2022/03/08 11:10:29;;;;;;;;;;;25.40;25.20;;;;;;5045457;28;20279;-65
2022/03/08 11:12:56;;;;;;;;;;;25.40;25.10;;;;;;5043273;28;19936;-65
2022/03/08 11:15:23;;;;;;;;;;;25.40;25.20;;;;;;5048682;28;19963;-65
2022/03/08 11:17:52;;;;;;;;;;;25.40;25.20;;;;;;5044955;28;20019;-65
2022/03/08 11:20:20;;;;;;;;;;;25.40;25.10;;;;;;5030712;28;19925;-65
2022/03/08 11:22:51;;;;;;;;;;;25.40;25.00;;;;;;5026247;28;20009;-64
2022/03/08 11:25:18;;;;;;;;;;;25.50;25.00;;;;;;5047569;28;20017;-64
2022/03/08 11:28:06;;;;;;;;;;;25.50;24.90;;;;;;5045241;28;19960;-65
2022/03/08 11:30:35;;;;;;;;;;;25.50;24.80;;;;;;5046277;28;20382;-65
2022/03/08 11:33:06;;;;;;;;;;;25.50;24.90;;;;;;5047456;28;20459;-65
2022/03/08 11:35:41;;;;;;;;;;;25.40;24.70;;;;;;5048521;28;19970;-64
2022/03/08 11:38:13;;;;;;;;;;;25.40;24.70;;;;;;5028033;28;19971;-66
2022/03/08 11:40:49;;;;;;;;;;;25.40;24.80;;;;;;5048046;28;19933;-66
2022/03/08 11:43:16;;;;;;;;;;;25.40;24.70;;;;;;5041197;28;20019;-66
2022/03/08 11:45:43;;;;;;;;;;;25.40;24.70;;;;;;5048805;28;19929;-67
2022/03/08 11:48:11;;;;;;;;;;;25.40;24.70;;;;;;5047971;28;19990;-66
2022/03/08 11:50:39;;;;;;;;;;;25.40;24.60;;;;;;5047590;28;19925;-66
2022/03/08 11:53:09;;;;;;;;;;;25.40;24.50;;;;;;5043683;28;20309;-66
2022/03/08 11:55:38;;;;;;;;;;;25.40;24.50;;;;;;5047637;28;20417;-65
2022/03/08 11:58:07;;;;;;;;;;;25.40;24.50;;;;;;5044936;28;20325;-67
2022/03/08 12:00:42;;;;;;;;;;;25.40;24.50;;;;;;5047859;28;19950;-67
2022/03/08 12:03:11;;;;;;;;;;;25.40;24.50;;;;;;5040538;28;20308;-66
2022/03/08 12:05:41;;;;;;;;;;;25.40;24.60;;;;;;5047721;28;20554;-66
2022/03/08 12:08:28;;;;;;;;;;;25.40;24.60;;;;;;5047826;28;19928;-67
2022/03/08 12:11:01;;;;;;;;;;;25.40;24.60;;;;;;5045946;28;19940;-66
2022/03/08 12:13:59;;;;;;;;;;;25.40;24.50;;;;;;5040326;28;20030;-67
2022/03/08 12:16:27;;;;;;;;;;;25.40;24.50;;;;;;5049376;28;20386;-67
2022/03/08 12:22:21;;;;;;;;;;;25.40;24.20;;;;;;5044574;28;19966;-65
2022/03/08 12:24:49;;;;;;;;;;;25.30;21.40;;;;;;5053927;28;19924;-67
2022/03/08 12:27:17;;;;;;;;;;;25.10;22.50;;;;;;5069500;28;19933;-68
2022/03/08 12:30:03;;;;;;;;;;;25.00;23.00;;;;;;5046184;28;20440;-66
2022/03/08 12:32:39;;;;;;;;;;;25.00;23.30;;;;;;5044668;28;19924;-67
2022/03/08 12:35:20;;;;;;;;;;;25.00;23.40;;;;;;5044736;28;20066;-68
2022/03/08 12:37:58;;;;;;;;;;;25.00;23.60;;;;;;5046467;28;19948;-69
2022/03/08 12:40:27;;;;;;;;;;;25.10;23.60;;;;;;5048575;28;19982;-66
2022/03/08 12:42:59;;;;;;;;;;;25.10;23.80;;;;;;5048804;28;20399;-68
2022/03/08 12:45:31;;;;;;;;;;;25.20;23.90;;;;;;5038155;28;19933;-67
2022/03/08 12:48:06;;;;;;;;;;;25.20;23.90;;;;;;5041409;28;19960;-63
2022/03/08 12:50:35;;;;;;;;;;;25.20;23.90;;;;;;5040872;28;21541;-67
2022/03/08 12:53:04;;;;;;;;;;;25.20;24.10;;;;;;5039226;28;20378;-69
2022/03/08 12:55:38;;;;;;;;;;;25.10;24.20;;;;;;5037376;28;20348;-68
2022/03/08 12:58:11;;;;;;;;;;;25.20;24.30;;;;;;5072547;28;19925;-65
2022/03/08 13:00:42;;;;;;;;;;;25.10;24.60;;;;;;5075905;28;20028;-67
2022/03/08 13:03:14;;;;;;;;;;;25.20;24.70;;;;;;5038559;28;19939;-67
2022/03/08 13:05:44;;;;;;;;;;;25.20;24.90;;;;;;5040403;28;19933;-68
2022/03/08 13:08:13;;;;;;;;;;;25.20;24.90;;;;;;5033208;28;20347;-66
2022/03/08 13:17:31;;;;;;;;;;;25.30;25.10;;;;;;5043845;28;19932;-66
2022/03/08 13:19:58;;;;;;;;;;;25.30;25.00;;;;;;5043029;28;19971;-66
2022/03/08 13:22:25;;;;;;;;;;;25.30;25.00;;;;;;5048151;28;20302;-66
2022/03/08 13:25:09;;;;;;;;;;;25.30;25.10;;;;;;5045580;28;20408;-64
2022/03/08 13:27:50;;;;;;;;;;;25.30;25.10;;;;;;5039952;28;20309;-66
2022/03/08 13:30:19;;;;;;;;;;;25.40;25.10;;;;;;5042517;28;20002;-62
2022/03/08 13:32:46;;;;;;;;;;;25.40;25.20;;;;;;5047755;28;19932;-64
2022/03/08 13:35:13;;;;;;;;;;;25.40;24.60;;;;;;5040554;28;19931;-66
2022/03/08 13:37:48;;;;;;;;;;;25.50;24.70;;;;;;5042955;28;19933;-68
2022/03/08 13:40:25;;;;;;;;;;;25.50;24.50;;;;;;5047618;28;19925;-64
2022/03/08 13:42:55;;;;;;;;;;;25.50;24.60;;;;;;5050574;28;20443;-65
2022/03/08 13:45:42;;;;;;;;;;;25.50;24.50;;;;;;5050577;28;19967;-67
2022/03/08 13:48:11;;;;;;;;;;;25.50;24.40;;;;;;5038732;28;19935;-68
2022/03/08 13:50:38;;;;;;;;;;;25.50;24.30;;;;;;5049327;28;19971;-70
2022/03/08 13:53:07;;;;;;;;;;;25.50;24.70;;;;;;5051224;28;19951;-70
2022/03/08 13:55:40;;;;;;;;;;;25.50;23.80;;;;;;5050584;28;19931;-65
2022/03/08 13:58:08;;;;;;;;;;;25.40;23.70;;;;;;5045947;28;19961;-66
2022/03/08 14:00:36;;;;;;;;;;;25.40;23.60;;;;;;5051192;28;19932;-66
2022/03/08 14:03:04;;;;;;;;;;;25.40;23.70;;;;;;5050926;28;19931;-65
2022/03/08 14:05:51;;;;;;;;;;;25.40;24.00;;;;;;5051691;28;19925;-64
2022/03/08 14:08:26;;;;;;;;;;;25.40;24.20;;;;;;5047816;28;19932;-62
2022/03/08 14:10:55;;;;;;;;;;;25.40;24.20;;;;;;5050640;28;19925;-64
2022/03/08 14:13:23;;;;;;;;;;;25.40;24.20;;;;;;5050443;28;20271;-70
2022/03/08 14:15:58;;;;;;;;;;;25.40;24.20;;;;;;5051002;28;19980;-67
2022/03/08 14:18:25;;;;;;;;;;;25.50;24.30;;;;;;5050485;28;19964;-67
2022/03/08 14:20:52;;;;;;;;;;;25.50;24.30;;;;;;5067358;28;20316;-67
2022/03/08 14:23:20;;;;;;;;;;;25.50;24.20;;;;;;5072011;28;19929;-71
2022/03/08 14:26:06;;;;;;;;;;;25.50;24.10;;;;;;5071432;28;19928;-68
2022/03/08 14:28:40;;;;;;;;;;;25.50;24.10;;;;;;5070849;28;19925;-66
2022/03/08 14:31:17;;;;;;;;;;;25.50;24.10;;;;;;5050030;28;19982;-66
2022/03/08 14:34:01;;;;;;;;;;;25.50;24.20;;;;;;5049577;28;19924;-69
2022/03/08 14:36:33;;;;;;;;;;;25.50;24.30;;;;;;5048897;28;19974;-65
2022/03/08 14:39:01;;;;;;;;;;;25.50;24.30;;;;;;5051690;28;20380;-66
2022/03/08 14:41:28;;;;;;;;;;;25.50;24.30;;;;;;5051406;28;19925;-67
2022/03/08 14:43:55;;;;;;;;;;;25.50;24.30;;;;;;5050232;28;19928;-64
2022/03/08 14:46:22;;;;;;;;;;;25.50;24.30;;;;;;5050076;28;19971;-67
2022/03/08 14:48:49;;;;;;;;;;;25.50;24.40;;;;;;5050008;28;19925;-64
2022/03/08 14:51:16;;;;;;;;;;;25.60;24.40;;;;;;5050909;28;19978;-65
2022/03/08 14:53:43;;;;;;;;;;;25.50;24.30;;;;;;5050356;28;19951;-65
2022/03/08 14:56:10;;;;;;;;;;;25.60;24.30;;;;;;5051114;28;20382;-67
2022/03/08 14:58:37;;;;;;;;;;;25.60;24.10;;;;;;5050236;28;19929;-66
2022/03/08 15:01:05;;;;;;;;;;;25.50;23.90;;;;;;5045591;28;19929;-67
2022/03/08 15:03:33;;;;;;;;;;;25.50;23.90;;;;;;5043725;28;19964;-67
2022/03/08 15:06:01;;;;;;;;;;;25.50;23.90;;;;;;5050254;28;19928;-64
2022/03/08 15:08:28;;;;;;;;;;;25.50;23.70;;;;;;5047315;28;19925;-66
2022/03/08 15:10:55;;;;;;;;;;;25.50;23.70;;;;;;5048298;28;20377;-70
2022/03/08 15:13:25;;;;;;;;;;;25.50;23.80;;;;;;5046966;28;19964;-65
2022/03/08 15:15:52;;;;;;;;;;;25.50;23.70;;;;;;5062879;28;19970;-65